Main page
METAR-TAF:

METAR-TAF

Airports :

Santiago Pérez Quiroz Airport

Arauca, Colombia

latitude: 07-04N, longitude: 070-44W, elevation: 128 m

Current weather observation

The report was made 15 hours and 6 minutes ago, at 22:00 UTC
Wind 7 kt from the East
Temperature 21°C
Humidity 100%
Pressure 1013 hPa
Visibility: 1000 m
Overcast at a height of 1000 ft
heavy rain

METAR: SKUC 272200Z 10007KT 1000 +RA OVC010 21/21 A2992 RMK AD BLW MNM MET

Time: 08:06 (13:06 UTC)


TAF: missing

Weather observations and forecasts of more than 4000 airports (METAR and TAF reports).

The available stations are represented by yellow and red dots on the map.

Hover mouse over dot to see the name of the station.

Then click to see weather observations and forecasts.

To change the map : click on the green buttons with a black cross to zoom in, on the green button with a dash to zoom out, or on the green arrows for adjacent maps.


METAR-TAF: